sensor_id;sensor_type;location;lat;lon;timestamp;P1;durP1;ratioP1;P2;durP2;ratioP2
13171;SDS011;6651;53.200;10.432;2024-02-04T00:02:06;12.82;;;3.50;;
13171;SDS011;6651;53.200;10.432;2024-02-04T00:04:34;12.63;;;3.47;;
13171;SDS011;6651;53.200;10.432;2024-02-04T00:07:01;10.13;;;3.00;;
13171;SDS011;6651;53.200;10.432;2024-02-04T00:09:27;11.63;;;3.25;;
13171;SDS011;6651;53.200;10.432;2024-02-04T00:11:54;14.80;;;3.78;;
13171;SDS011;6651;53.200;10.432;2024-02-04T00:14:20;9.23;;;3.28;;
13171;SDS011;6651;53.200;10.432;2024-02-04T00:16:46;11.13;;;3.42;;
13171;SDS011;6651;53.200;10.432;2024-02-04T00:19:12;13.75;;;3.28;;
13171;SDS011;6651;53.200;10.432;2024-02-04T00:21:38;12.07;;;2.83;;
13171;SDS011;6651;53.200;10.432;2024-02-04T00:24:04;12.75;;;3.70;;
13171;SDS011;6651;53.200;10.432;2024-02-04T00:26:30;10.38;;;2.90;;
13171;SDS011;6651;53.200;10.432;2024-02-04T00:28:56;9.80;;;2.97;;
13171;SDS011;6651;53.200;10.432;2024-02-04T00:31:22;13.35;;;2.95;;
13171;SDS011;6651;53.200;10.432;2024-02-04T00:33:48;12.93;;;3.13;;
13171;SDS011;6651;53.200;10.432;2024-02-04T00:36:14;9.13;;;2.95;;
13171;SDS011;6651;53.200;10.432;2024-02-04T00:38:40;13.45;;;3.40;;
13171;SDS011;6651;53.200;10.432;2024-02-04T00:41:06;10.93;;;3.15;;
13171;SDS011;6651;53.200;10.432;2024-02-04T00:43:32;12.30;;;3.13;;
13171;SDS011;6651;53.200;10.432;2024-02-04T00:45:58;8.43;;;2.60;;
13171;SDS011;6651;53.200;10.432;2024-02-04T00:48:25;13.07;;;3.30;;
13171;SDS011;6651;53.200;10.432;2024-02-04T00:50:51;11.13;;;3.10;;
13171;SDS011;6651;53.200;10.432;2024-02-04T00:53:17;15.38;;;3.67;;
13171;SDS011;6651;53.200;10.432;2024-02-04T00:55:43;10.30;;;2.75;;
13171;SDS011;6651;53.200;10.432;2024-02-04T00:58:09;7.72;;;2.75;;
13171;SDS011;6651;53.200;10.432;2024-02-04T01:00:35;10.30;;;3.10;;
13171;SDS011;6651;53.200;10.432;2024-02-04T01:03:01;10.02;;;2.60;;
13171;SDS011;6651;53.200;10.432;2024-02-04T01:05:27;11.63;;;3.72;;
13171;SDS011;6651;53.200;10.432;2024-02-04T01:07:53;10.40;;;2.92;;
13171;SDS011;6651;53.200;10.432;2024-02-04T01:10:19;9.57;;;3.00;;
13171;SDS011;6651;53.200;10.432;2024-02-04T01:12:45;10.73;;;3.03;;
13171;SDS011;6651;53.200;10.432;2024-02-04T01:15:11;12.27;;;2.90;;
13171;SDS011;6651;53.200;10.432;2024-02-04T01:17:37;9.75;;;2.92;;
13171;SDS011;6651;53.200;10.432;2024-02-04T01:20:03;9.32;;;2.88;;
13171;SDS011;6651;53.200;10.432;2024-02-04T01:22:30;11.15;;;3.13;;
13171;SDS011;6651;53.200;10.432;2024-02-04T01:24:56;12.38;;;3.45;;
13171;SDS011;6651;53.200;10.432;2024-02-04T01:27:22;10.05;;;3.30;;
13171;SDS011;6651;53.200;10.432;2024-02-04T01:29:48;8.93;;;2.58;;
13171;SDS011;6651;53.200;10.432;2024-02-04T01:32:14;11.00;;;3.00;;
13171;SDS011;6651;53.200;10.432;2024-02-04T01:34:41;10.48;;;3.45;;
13171;SDS011;6651;53.200;10.432;2024-02-04T01:37:07;11.23;;;3.17;;
13171;SDS011;6651;53.200;10.432;2024-02-04T01:39:33;8.07;;;2.78;;
13171;SDS011;6651;53.200;10.432;2024-02-04T01:41:59;10.00;;;2.92;;
13171;SDS011;6651;53.200;10.432;2024-02-04T01:44:26;11.35;;;2.92;;
13171;SDS011;6651;53.200;10.432;2024-02-04T01:46:52;12.23;;;3.10;;
13171;SDS011;6651;53.200;10.432;2024-02-04T01:49:19;13.20;;;3.38;;
13171;SDS011;6651;53.200;10.432;2024-02-04T01:51:45;10.50;;;2.78;;
13171;SDS011;6651;53.200;10.432;2024-02-04T01:54:11;9.25;;;2.92;;
13171;SDS011;6651;53.200;10.432;2024-02-04T01:56:38;10.05;;;2.78;;
13171;SDS011;6651;53.200;10.432;2024-02-04T01:59:04;13.15;;;3.40;;
13171;SDS011;6651;53.200;10.432;2024-02-04T02:01:30;9.38;;;2.92;;
13171;SDS011;6651;53.200;10.432;2024-02-04T02:03:57;12.68;;;3.10;;
13171;SDS011;6651;53.200;10.432;2024-02-04T02:06:23;9.07;;;2.65;;
13171;SDS011;6651;53.200;10.432;2024-02-04T02:08:49;10.98;;;2.90;;
13171;SDS011;6651;53.200;10.432;2024-02-04T02:11:18;10.68;;;3.40;;
13171;SDS011;6651;53.200;10.432;2024-02-04T02:13:45;12.13;;;3.42;;
13171;SDS011;6651;53.200;10.432;2024-02-04T02:16:15;10.05;;;2.83;;
13171;SDS011;6651;53.200;10.432;2024-02-04T02:18:48;10.88;;;3.45;;
13171;SDS011;6651;53.200;10.432;2024-02-04T02:21:36;14.10;;;4.32;;
13171;SDS011;6651;53.200;10.432;2024-02-04T02:24:14;12.13;;;3.65;;
13171;SDS011;6651;53.200;10.432;2024-02-04T02:26:41;11.95;;;3.70;;
13171;SDS011;6651;53.200;10.432;2024-02-04T02:29:08;10.82;;;3.40;;
13171;SDS011;6651;53.200;10.432;2024-02-04T02:31:37;11.32;;;3.35;;
13171;SDS011;6651;53.200;10.432;2024-02-04T02:34:04;8.88;;;3.40;;
13171;SDS011;6651;53.200;10.432;2024-02-04T02:36:33;12.77;;;3.60;;
13171;SDS011;6651;53.200;10.432;2024-02-04T02:41:28;10.32;;;3.35;;
13171;SDS011;6651;53.200;10.432;2024-02-04T02:43:56;8.68;;;2.92;;
13171;SDS011;6651;53.200;10.432;2024-02-04T02:46:22;9.73;;;3.28;;
13171;SDS011;6651;53.200;10.432;2024-02-04T02:48:49;11.52;;;3.47;;
13171;SDS011;6651;53.200;10.432;2024-02-04T02:51:15;11.35;;;3.35;;
13171;SDS011;6651;53.200;10.432;2024-02-04T02:53:41;11.23;;;3.53;;
13171;SDS011;6651;53.200;10.432;2024-02-04T02:56:07;10.75;;;3.25;;
13171;SDS011;6651;53.200;10.432;2024-02-04T02:58:33;11.35;;;2.97;;
13171;SDS011;6651;53.200;10.432;2024-02-04T03:00:59;7.75;;;2.72;;
13171;SDS011;6651;53.200;10.432;2024-02-04T03:03:25;8.93;;;2.65;;
13171;SDS011;6651;53.200;10.432;2024-02-04T03:05:51;8.55;;;2.95;;
13171;SDS011;6651;53.200;10.432;2024-02-04T03:08:17;10.18;;;3.40;;
13171;SDS011;6651;53.200;10.432;2024-02-04T03:10:43;7.82;;;3.05;;
13171;SDS011;6651;53.200;10.432;2024-02-04T03:13:09;9.30;;;3.08;;
13171;SDS011;6651;53.200;10.432;2024-02-04T03:15:35;9.80;;;3.30;;
13171;SDS011;6651;53.200;10.432;2024-02-04T03:18:01;9.80;;;3.08;;
13171;SDS011;6651;53.200;10.432;2024-02-04T03:20:27;9.57;;;3.20;;
13171;SDS011;6651;53.200;10.432;2024-02-04T03:22:54;9.75;;;3.35;;
13171;SDS011;6651;53.200;10.432;2024-02-04T03:25:21;12.52;;;3.50;;
13171;SDS011;6651;53.200;10.432;2024-02-04T03:27:51;8.40;;;3.10;;
13171;SDS011;6651;53.200;10.432;2024-02-04T03:30:17;8.77;;;3.25;;
13171;SDS011;6651;53.200;10.432;2024-02-04T03:32:44;8.73;;;2.92;;
13171;SDS011;6651;53.200;10.432;2024-02-04T03:35:10;12.02;;;3.28;;
13171;SDS011;6651;53.200;10.432;2024-02-04T03:37:36;8.70;;;3.15;;
13171;SDS011;6651;53.200;10.432;2024-02-04T03:40:02;11.02;;;3.20;;
13171;SDS011;6651;53.200;10.432;2024-02-04T03:42:28;9.98;;;3.28;;
13171;SDS011;6651;53.200;10.432;2024-02-04T03:44:55;10.48;;;3.35;;
13171;SDS011;6651;53.200;10.432;2024-02-04T03:47:21;12.43;;;4.00;;
13171;SDS011;6651;53.200;10.432;2024-02-04T03:49:47;12.85;;;4.13;;
13171;SDS011;6651;53.200;10.432;2024-02-04T03:52:13;8.55;;;3.63;;
13171;SDS011;6651;53.200;10.432;2024-02-04T03:54:39;9.45;;;3.45;;
13171;SDS011;6651;53.200;10.432;2024-02-04T03:57:05;9.30;;;3.30;;
13171;SDS011;6651;53.200;10.432;2024-02-04T03:59:31;11.80;;;3.70;;
13171;SDS011;6651;53.200;10.432;2024-02-04T04:01:57;8.93;;;3.53;;
13171;SDS011;6651;53.200;10.432;2024-02-04T04:04:23;11.00;;;3.78;;
13171;SDS011;6651;53.200;10.432;2024-02-04T04:06:51;8.70;;;3.60;;
13171;SDS011;6651;53.200;10.432;2024-02-04T04:09:17;9.07;;;4.25;;
13171;SDS011;6651;53.200;10.432;2024-02-04T04:11:43;10.93;;;3.60;;
13171;SDS011;6651;53.200;10.432;2024-02-04T04:14:09;10.43;;;4.00;;
13171;SDS011;6651;53.200;10.432;2024-02-04T04:16:35;8.98;;;4.05;;
13171;SDS011;6651;53.200;10.432;2024-02-04T04:19:01;9.00;;;4.15;;
13171;SDS011;6651;53.200;10.432;2024-02-04T04:21:27;13.32;;;4.43;;
13171;SDS011;6651;53.200;10.432;2024-02-04T04:23:53;8.52;;;4.20;;
13171;SDS011;6651;53.200;10.432;2024-02-04T04:26:19;8.50;;;4.15;;
13171;SDS011;6651;53.200;10.432;2024-02-04T04:28:45;9.32;;;3.83;;
13171;SDS011;6651;53.200;10.432;2024-02-04T04:31:11;9.63;;;4.55;;
13171;SDS011;6651;53.200;10.432;2024-02-04T04:33:37;13.88;;;4.50;;
13171;SDS011;6651;53.200;10.432;2024-02-04T04:36:03;11.65;;;5.25;;
13171;SDS011;6651;53.200;10.432;2024-02-04T04:38:29;11.05;;;5.47;;
13171;SDS011;6651;53.200;10.432;2024-02-04T04:40:55;12.65;;;5.63;;
13171;SDS011;6651;53.200;10.432;2024-02-04T04:43:21;11.43;;;5.72;;
13171;SDS011;6651;53.200;10.432;2024-02-04T04:45:47;11.10;;;6.35;;
13171;SDS011;6651;53.200;10.432;2024-02-04T04:48:13;13.02;;;6.28;;
13171;SDS011;6651;53.200;10.432;2024-02-04T04:50:39;13.20;;;6.45;;
13171;SDS011;6651;53.200;10.432;2024-02-04T04:53:05;12.07;;;6.80;;
13171;SDS011;6651;53.200;10.432;2024-02-04T04:55:31;13.93;;;7.18;;
13171;SDS011;6651;53.200;10.432;2024-02-04T04:57:57;12.35;;;6.72;;
13171;SDS011;6651;53.200;10.432;2024-02-04T05:00:23;15.77;;;7.63;;
13171;SDS011;6651;53.200;10.432;2024-02-04T05:02:49;11.93;;;7.07;;
13171;SDS011;6651;53.200;10.432;2024-02-04T05:05:15;13.20;;;7.45;;
13171;SDS011;6651;53.200;10.432;2024-02-04T05:07:41;14.68;;;7.68;;
13171;SDS011;6651;53.200;10.432;2024-02-04T05:10:08;16.13;;;8.52;;
13171;SDS011;6651;53.200;10.432;2024-02-04T05:12:35;13.18;;;7.45;;
13171;SDS011;6651;53.200;10.432;2024-02-04T05:15:01;12.95;;;7.53;;
13171;SDS011;6651;53.200;10.432;2024-02-04T05:17:27;14.43;;;7.90;;
13171;SDS011;6651;53.200;10.432;2024-02-04T05:19:53;14.50;;;8.00;;
13171;SDS011;6651;53.200;10.432;2024-02-04T05:22:19;11.88;;;7.25;;
13171;SDS011;6651;53.200;10.432;2024-02-04T05:24:45;14.30;;;7.32;;
13171;SDS011;6651;53.200;10.432;2024-02-04T05:27:11;11.93;;;7.10;;
13171;SDS011;6651;53.200;10.432;2024-02-04T05:29:37;13.40;;;7.00;;
13171;SDS011;6651;53.200;10.432;2024-02-04T05:32:03;11.43;;;6.88;;
13171;SDS011;6651;53.200;10.432;2024-02-04T05:34:29;12.15;;;6.50;;
13171;SDS011;6651;53.200;10.432;2024-02-04T05:36:56;12.57;;;6.32;;
13171;SDS011;6651;53.200;10.432;2024-02-04T05:39:22;12.43;;;5.97;;
13171;SDS011;6651;53.200;10.432;2024-02-04T05:41:49;14.70;;;6.28;;
13171;SDS011;6651;53.200;10.432;2024-02-04T05:44:15;12.65;;;5.80;;
13171;SDS011;6651;53.200;10.432;2024-02-04T05:46:41;12.82;;;5.47;;
13171;SDS011;6651;53.200;10.432;2024-02-04T05:49:07;12.50;;;5.40;;
13171;SDS011;6651;53.200;10.432;2024-02-04T05:51:37;10.43;;;5.47;;
13171;SDS011;6651;53.200;10.432;2024-02-04T05:54:04;13.07;;;5.63;;
13171;SDS011;6651;53.200;10.432;2024-02-04T05:56:30;10.85;;;5.20;;
13171;SDS011;6651;53.200;10.432;2024-02-04T05:58:56;11.88;;;5.35;;
13171;SDS011;6651;53.200;10.432;2024-02-04T06:01:22;12.85;;;5.63;;
13171;SDS011;6651;53.200;10.432;2024-02-04T06:03:48;13.43;;;5.53;;
13171;SDS011;6651;53.200;10.432;2024-02-04T06:06:14;13.73;;;5.10;;
13171;SDS011;6651;53.200;10.432;2024-02-04T06:08:41;15.82;;;5.82;;
13171;SDS011;6651;53.200;10.432;2024-02-04T06:11:10;14.30;;;5.65;;
13171;SDS011;6651;53.200;10.432;2024-02-04T06:13:36;11.82;;;5.65;;
13171;SDS011;6651;53.200;10.432;2024-02-04T06:16:03;14.52;;;5.82;;
13171;SDS011;6651;53.200;10.432;2024-02-04T06:18:29;12.05;;;5.22;;
13171;SDS011;6651;53.200;10.432;2024-02-04T06:20:55;13.35;;;5.43;;
13171;SDS011;6651;53.200;10.432;2024-02-04T06:23:21;8.98;;;4.65;;
13171;SDS011;6651;53.200;10.432;2024-02-04T06:25:47;9.20;;;4.55;;
13171;SDS011;6651;53.200;10.432;2024-02-04T06:28:13;13.95;;;5.05;;
13171;SDS011;6651;53.200;10.432;2024-02-04T06:30:39;11.80;;;4.63;;
13171;SDS011;6651;53.200;10.432;2024-02-04T06:33:05;11.45;;;4.75;;
13171;SDS011;6651;53.200;10.432;2024-02-04T06:35:31;10.25;;;4.40;;
13171;SDS011;6651;53.200;10.432;2024-02-04T06:37:58;13.00;;;4.45;;
13171;SDS011;6651;53.200;10.432;2024-02-04T06:40:24;13.88;;;4.70;;
13171;SDS011;6651;53.200;10.432;2024-02-04T06:42:50;11.73;;;4.13;;
13171;SDS011;6651;53.200;10.432;2024-02-04T06:45:16;10.93;;;4.30;;
13171;SDS011;6651;53.200;10.432;2024-02-04T06:47:45;11.40;;;4.18;;
13171;SDS011;6651;53.200;10.432;2024-02-04T06:50:11;10.27;;;3.80;;
13171;SDS011;6651;53.200;10.432;2024-02-04T06:52:45;11.98;;;4.15;;
13171;SDS011;6651;53.200;10.432;2024-02-04T06:55:12;10.13;;;3.58;;
13171;SDS011;6651;53.200;10.432;2024-02-04T06:57:38;11.48;;;3.97;;
13171;SDS011;6651;53.200;10.432;2024-02-04T07:00:05;11.77;;;3.67;;
13171;SDS011;6651;53.200;10.432;2024-02-04T07:02:33;11.50;;;4.30;;
13171;SDS011;6651;53.200;10.432;2024-02-04T07:04:59;12.18;;;3.67;;
13171;SDS011;6651;53.200;10.432;2024-02-04T07:07:26;12.35;;;3.80;;
13171;SDS011;6651;53.200;10.432;2024-02-04T07:09:52;11.25;;;3.47;;
13171;SDS011;6651;53.200;10.432;2024-02-04T07:12:18;9.38;;;3.78;;
13171;SDS011;6651;53.200;10.432;2024-02-04T07:14:44;10.77;;;3.60;;
13171;SDS011;6651;53.200;10.432;2024-02-04T07:17:10;10.25;;;3.70;;
13171;SDS011;6651;53.200;10.432;2024-02-04T07:19:39;13.70;;;3.63;;
13171;SDS011;6651;53.200;10.432;2024-02-04T07:22:05;9.43;;;3.42;;
13171;SDS011;6651;53.200;10.432;2024-02-04T07:24:31;10.95;;;3.40;;
13171;SDS011;6651;53.200;10.432;2024-02-04T07:26:57;11.60;;;3.35;;
13171;SDS011;6651;53.200;10.432;2024-02-04T07:29:24;10.35;;;3.20;;
13171;SDS011;6651;53.200;10.432;2024-02-04T07:31:50;9.48;;;3.30;;
13171;SDS011;6651;53.200;10.432;2024-02-04T07:34:16;12.45;;;3.10;;
13171;SDS011;6651;53.200;10.432;2024-02-04T07:36:42;8.35;;;3.15;;
13171;SDS011;6651;53.200;10.432;2024-02-04T07:39:10;11.88;;;3.78;;
13171;SDS011;6651;53.200;10.432;2024-02-04T07:41:36;11.32;;;3.35;;
13171;SDS011;6651;53.200;10.432;2024-02-04T07:44:02;9.57;;;3.10;;
13171;SDS011;6651;53.200;10.432;2024-02-04T07:46:28;10.50;;;3.10;;
13171;SDS011;6651;53.200;10.432;2024-02-04T07:48:54;14.07;;;3.45;;
13171;SDS011;6651;53.200;10.432;2024-02-04T07:51:20;10.52;;;3.15;;
13171;SDS011;6651;53.200;10.432;2024-02-04T07:53:46;8.73;;;3.00;;
13171;SDS011;6651;53.200;10.432;2024-02-04T07:56:12;7.63;;;2.80;;
13171;SDS011;6651;53.200;10.432;2024-02-04T07:58:38;7.40;;;2.90;;
13171;SDS011;6651;53.200;10.432;2024-02-04T08:01:04;10.40;;;2.97;;
13171;SDS011;6651;53.200;10.432;2024-02-04T08:03:30;12.60;;;3.10;;
13171;SDS011;6651;53.200;10.432;2024-02-04T08:05:56;10.60;;;3.22;;
13171;SDS011;6651;53.200;10.432;2024-02-04T08:08:22;12.13;;;3.35;;
13171;SDS011;6651;53.200;10.432;2024-02-04T08:10:48;8.70;;;3.22;;
13171;SDS011;6651;53.200;10.432;2024-02-04T08:13:14;11.32;;;3.40;;
13171;SDS011;6651;53.200;10.432;2024-02-04T08:15:40;8.30;;;2.65;;
13171;SDS011;6651;53.200;10.432;2024-02-04T08:18:06;11.20;;;3.20;;
13171;SDS011;6651;53.200;10.432;2024-02-04T08:20:32;10.50;;;3.30;;
13171;SDS011;6651;53.200;10.432;2024-02-04T08:22:58;8.52;;;3.42;;
13171;SDS011;6651;53.200;10.432;2024-02-04T08:25:24;9.80;;;3.22;;
13171;SDS011;6651;53.200;10.432;2024-02-04T08:27:50;6.63;;;3.08;;
13171;SDS011;6651;53.200;10.432;2024-02-04T08:30:16;10.18;;;3.50;;
13171;SDS011;6651;53.200;10.432;2024-02-04T08:32:44;9.55;;;3.42;;
13171;SDS011;6651;53.200;10.432;2024-02-04T08:35:10;11.65;;;3.60;;
13171;SDS011;6651;53.200;10.432;2024-02-04T08:37:36;9.57;;;3.60;;
13171;SDS011;6651;53.200;10.432;2024-02-04T08:40:03;11.20;;;3.72;;
13171;SDS011;6651;53.200;10.432;2024-02-04T08:42:29;9.65;;;3.70;;
13171;SDS011;6651;53.200;10.432;2024-02-04T08:44:55;7.65;;;3.83;;
13171;SDS011;6651;53.200;10.432;2024-02-04T08:47:21;8.73;;;4.13;;
13171;SDS011;6651;53.200;10.432;2024-02-04T08:49:47;9.10;;;3.75;;
13171;SDS011;6651;53.200;10.432;2024-02-04T08:52:13;11.10;;;4.13;;
13171;SDS011;6651;53.200;10.432;2024-02-04T08:54:39;9.05;;;3.97;;
13171;SDS011;6651;53.200;10.432;2024-02-04T08:57:05;9.02;;;3.97;;
13171;SDS011;6651;53.200;10.432;2024-02-04T08:59:31;11.02;;;4.45;;
13171;SDS011;6651;53.200;10.432;2024-02-04T09:01:57;9.77;;;4.32;;
13171;SDS011;6651;53.200;10.432;2024-02-04T09:04:23;9.30;;;4.57;;
13171;SDS011;6651;53.200;10.432;2024-02-04T09:06:49;8.65;;;4.05;;
13171;SDS011;6651;53.200;10.432;2024-02-04T09:09:15;9.13;;;4.38;;
13171;SDS011;6651;53.200;10.432;2024-02-04T09:11:41;12.68;;;4.45;;
13171;SDS011;6651;53.200;10.432;2024-02-04T09:14:07;10.43;;;4.38;;
13171;SDS011;6651;53.200;10.432;2024-02-04T09:16:33;8.35;;;4.32;;
13171;SDS011;6651;53.200;10.432;2024-02-04T09:18:59;9.57;;;4.85;;
13171;SDS011;6651;53.200;10.432;2024-02-04T09:21:26;9.63;;;4.68;;
13171;SDS011;6651;53.200;10.432;2024-02-04T09:23:52;9.80;;;5.00;;
13171;SDS011;6651;53.200;10.432;2024-02-04T09:26:18;11.68;;;4.38;;
13171;SDS011;6651;53.200;10.432;2024-02-04T09:28:44;10.27;;;4.93;;
13171;SDS011;6651;53.200;10.432;2024-02-04T09:31:10;7.95;;;4.95;;
13171;SDS011;6651;53.200;10.432;2024-02-04T09:33:36;10.68;;;5.10;;
13171;SDS011;6651;53.200;10.432;2024-02-04T09:36:03;11.30;;;4.82;;
13171;SDS011;6651;53.200;10.432;2024-02-04T09:38:29;13.05;;;5.32;;
13171;SDS011;6651;53.200;10.432;2024-02-04T09:40:55;10.75;;;4.75;;
13171;SDS011;6651;53.200;10.432;2024-02-04T09:43:21;11.27;;;4.60;;
13171;SDS011;6651;53.200;10.432;2024-02-04T09:45:47;13.27;;;5.32;;
13171;SDS011;6651;53.200;10.432;2024-02-04T09:48:14;10.55;;;5.10;;
13171;SDS011;6651;53.200;10.432;2024-02-04T09:50:42;10.95;;;5.03;;
13171;SDS011;6651;53.200;10.432;2024-02-04T09:53:08;9.68;;;4.65;;
13171;SDS011;6651;53.200;10.432;2024-02-04T09:55:34;14.38;;;4.65;;
13171;SDS011;6651;53.200;10.432;2024-02-04T09:58:01;9.20;;;4.43;;
13171;SDS011;6651;53.200;10.432;2024-02-04T10:00:27;11.45;;;4.22;;
13171;SDS011;6651;53.200;10.432;2024-02-04T10:02:55;13.77;;;4.15;;
13171;SDS011;6651;53.200;10.432;2024-02-04T10:05:21;10.10;;;4.03;;
13171;SDS011;6651;53.200;10.432;2024-02-04T10:07:47;7.95;;;3.47;;
13171;SDS011;6651;53.200;10.432;2024-02-04T10:10:13;11.23;;;3.72;;
13171;SDS011;6651;53.200;10.432;2024-02-04T10:12:39;12.93;;;4.72;;
13171;SDS011;6651;53.200;10.432;2024-02-04T10:15:06;11.43;;;3.90;;
13171;SDS011;6651;53.200;10.432;2024-02-04T10:17:32;10.98;;;3.13;;
13171;SDS011;6651;53.200;10.432;2024-02-04T10:20:00;11.10;;;3.90;;
13171;SDS011;6651;53.200;10.432;2024-02-04T10:22:26;13.75;;;3.95;;
13171;SDS011;6651;53.200;10.432;2024-02-04T10:25:19;12.88;;;3.78;;
13171;SDS011;6651;53.200;10.432;2024-02-04T10:27:42;10.85;;;4.20;;
13171;SDS011;6651;53.200;10.432;2024-02-04T10:30:08;12.85;;;3.78;;
13171;SDS011;6651;53.200;10.432;2024-02-04T10:32:34;11.65;;;3.80;;
13171;SDS011;6651;53.200;10.432;2024-02-04T10:35:00;7.90;;;3.47;;
13171;SDS011;6651;53.200;10.432;2024-02-04T10:37:27;10.57;;;3.30;;
13171;SDS011;6651;53.200;10.432;2024-02-04T10:39:53;11.88;;;3.58;;
13171;SDS011;6651;53.200;10.432;2024-02-04T10:42:21;11.43;;;3.10;;
13171;SDS011;6651;53.200;10.432;2024-02-04T10:44:48;13.13;;;3.38;;
13171;SDS011;6651;53.200;10.432;2024-02-04T10:47:16;10.80;;;3.00;;
13171;SDS011;6651;53.200;10.432;2024-02-04T10:49:44;10.55;;;3.10;;
13171;SDS011;6651;53.200;10.432;2024-02-04T10:52:15;10.77;;;3.30;;
13171;SDS011;6651;53.200;10.432;2024-02-04T10:54:43;13.63;;;3.40;;
13171;SDS011;6651;53.200;10.432;2024-02-04T10:57:12;12.38;;;3.50;;
13171;SDS011;6651;53.200;10.432;2024-02-04T10:59:41;8.85;;;2.92;;
13171;SDS011;6651;53.200;10.432;2024-02-04T11:02:09;10.02;;;3.10;;
13171;SDS011;6651;53.200;10.432;2024-02-04T11:04:35;13.85;;;3.50;;
13171;SDS011;6651;53.200;10.432;2024-02-04T11:07:02;13.20;;;3.47;;
13171;SDS011;6651;53.200;10.432;2024-02-04T11:09:29;12.70;;;2.92;;
13171;SDS011;6651;53.200;10.432;2024-02-04T11:11:55;11.88;;;3.58;;
13171;SDS011;6651;53.200;10.432;2024-02-04T11:14:23;11.70;;;3.38;;
13171;SDS011;6651;53.200;10.432;2024-02-04T11:26:56;13.13;;;3.72;;
13171;SDS011;6651;53.200;10.432;2024-02-04T11:29:22;10.88;;;2.92;;
13171;SDS011;6651;53.200;10.432;2024-02-04T11:31:48;12.15;;;3.75;;
13171;SDS011;6651;53.200;10.432;2024-02-04T11:34:14;13.52;;;3.08;;
13171;SDS011;6651;53.200;10.432;2024-02-04T11:36:40;9.48;;;3.20;;
13171;SDS011;6651;53.200;10.432;2024-02-04T11:39:12;14.15;;;3.47;;
13171;SDS011;6651;53.200;10.432;2024-02-04T11:41:46;12.25;;;3.25;;
13171;SDS011;6651;53.200;10.432;2024-02-04T11:44:12;8.85;;;3.53;;
13171;SDS011;6651;53.200;10.432;2024-02-04T11:46:38;11.70;;;3.40;;
13171;SDS011;6651;53.200;10.432;2024-02-04T11:49:13;12.13;;;3.47;;
13171;SDS011;6651;53.200;10.432;2024-02-04T11:51:40;10.95;;;3.70;;
13171;SDS011;6651;53.200;10.432;2024-02-04T11:54:06;9.68;;;3.10;;
13171;SDS011;6651;53.200;10.432;2024-02-04T11:56:32;13.15;;;3.58;;
13171;SDS011;6651;53.200;10.432;2024-02-04T11:59:00;11.43;;;3.38;;
13171;SDS011;6651;53.200;10.432;2024-02-04T12:01:29;12.63;;;3.38;;
13171;SDS011;6651;53.200;10.432;2024-02-04T12:04:08;11.73;;;3.30;;
13171;SDS011;6651;53.200;10.432;2024-02-04T12:06:34;10.57;;;2.80;;
13171;SDS011;6651;53.200;10.432;2024-02-04T12:09:00;12.40;;;3.72;;
13171;SDS011;6651;53.200;10.432;2024-02-04T12:11:29;10.93;;;3.53;;
13171;SDS011;6651;53.200;10.432;2024-02-04T12:13:56;10.68;;;3.50;;
13171;SDS011;6651;53.200;10.432;2024-02-04T12:16:22;14.68;;;3.85;;
13171;SDS011;6651;53.200;10.432;2024-02-04T12:18:49;11.13;;;2.97;;
13171;SDS011;6651;53.200;10.432;2024-02-04T12:21:15;11.75;;;3.28;;
13171;SDS011;6651;53.200;10.432;2024-02-04T12:23:41;12.65;;;3.40;;
13171;SDS011;6651;53.200;10.432;2024-02-04T12:26:07;12.27;;;3.25;;
13171;SDS011;6651;53.200;10.432;2024-02-04T12:28:33;12.07;;;3.20;;
13171;SDS011;6651;53.200;10.432;2024-02-04T12:30:59;11.52;;;2.85;;
13171;SDS011;6651;53.200;10.432;2024-02-04T12:33:25;7.63;;;3.13;;
13171;SDS011;6651;53.200;10.432;2024-02-04T12:35:51;10.45;;;3.05;;
13171;SDS011;6651;53.200;10.432;2024-02-04T12:38:17;9.23;;;2.95;;
13171;SDS011;6651;53.200;10.432;2024-02-04T12:40:43;9.80;;;3.05;;
13171;SDS011;6651;53.200;10.432;2024-02-04T12:43:10;10.45;;;2.75;;
13171;SDS011;6651;53.200;10.432;2024-02-04T12:45:36;8.32;;;2.90;;
13171;SDS011;6651;53.200;10.432;2024-02-04T12:48:02;11.13;;;3.65;;
13171;SDS011;6651;53.200;10.432;2024-02-04T12:50:29;12.38;;;3.20;;
13171;SDS011;6651;53.200;10.432;2024-02-04T12:53:04;11.60;;;3.08;;
13171;SDS011;6651;53.200;10.432;2024-02-04T12:55:31;10.15;;;3.08;;
13171;SDS011;6651;53.200;10.432;2024-02-04T13:00:29;9.85;;;2.65;;
13171;SDS011;6651;53.200;10.432;2024-02-04T13:02:56;10.13;;;2.97;;
13171;SDS011;6651;53.200;10.432;2024-02-04T13:05:23;10.73;;;2.70;;
13171;SDS011;6651;53.200;10.432;2024-02-04T13:07:57;10.07;;;3.22;;
13171;SDS011;6651;53.200;10.432;2024-02-04T13:10:24;8.57;;;3.05;;
13171;SDS011;6651;53.200;10.432;2024-02-04T13:13:06;8.70;;;3.10;;
13171;SDS011;6651;53.200;10.432;2024-02-04T13:15:35;14.50;;;3.15;;
13171;SDS011;6651;53.200;10.432;2024-02-04T13:18:01;10.93;;;2.70;;
13171;SDS011;6651;53.200;10.432;2024-02-04T13:20:27;10.48;;;3.28;;
13171;SDS011;6651;53.200;10.432;2024-02-04T13:22:53;10.35;;;3.40;;
13171;SDS011;6651;53.200;10.432;2024-02-04T13:25:19;9.88;;;3.03;;
13171;SDS011;6651;53.200;10.432;2024-02-04T13:27:46;10.10;;;3.15;;
13171;SDS011;6651;53.200;10.432;2024-02-04T13:30:13;10.40;;;3.17;;
13171;SDS011;6651;53.200;10.432;2024-02-04T13:32:39;8.38;;;3.15;;
13171;SDS011;6651;53.200;10.432;2024-02-04T13:35:08;11.18;;;2.95;;
13171;SDS011;6651;53.200;10.432;2024-02-04T13:37:39;7.18;;;2.80;;
13171;SDS011;6651;53.200;10.432;2024-02-04T13:40:05;8.98;;;2.70;;
13171;SDS011;6651;53.200;10.432;2024-02-04T13:42:32;8.90;;;3.33;;
13171;SDS011;6651;53.200;10.432;2024-02-04T13:44:59;9.48;;;2.78;;
13171;SDS011;6651;53.200;10.432;2024-02-04T13:47:26;6.50;;;2.47;;
13171;SDS011;6651;53.200;10.432;2024-02-04T13:49:52;9.23;;;2.88;;
13171;SDS011;6651;53.200;10.432;2024-02-04T13:52:18;6.88;;;2.55;;
13171;SDS011;6651;53.200;10.432;2024-02-04T13:54:44;6.30;;;2.55;;
13171;SDS011;6651;53.200;10.432;2024-02-04T13:57:10;8.73;;;3.13;;
13171;SDS011;6651;53.200;10.432;2024-02-04T13:59:36;9.90;;;2.97;;
13171;SDS011;6651;53.200;10.432;2024-02-04T14:02:02;9.30;;;3.08;;
13171;SDS011;6651;53.200;10.432;2024-02-04T14:04:29;7.93;;;2.60;;
13171;SDS011;6651;53.200;10.432;2024-02-04T14:06:56;9.38;;;3.03;;
13171;SDS011;6651;53.200;10.432;2024-02-04T14:09:22;9.07;;;3.10;;
13171;SDS011;6651;53.200;10.432;2024-02-04T14:11:48;8.40;;;2.75;;
13171;SDS011;6651;53.200;10.432;2024-02-04T14:14:14;8.95;;;2.85;;
13171;SDS011;6651;53.200;10.432;2024-02-04T14:16:40;9.70;;;3.17;;
13171;SDS011;6651;53.200;10.432;2024-02-04T14:19:06;8.98;;;2.70;;
13171;SDS011;6651;53.200;10.432;2024-02-04T14:21:32;9.38;;;3.20;;
13171;SDS011;6651;53.200;10.432;2024-02-04T14:23:58;8.05;;;2.92;;
13171;SDS011;6651;53.200;10.432;2024-02-04T14:26:24;7.10;;;2.10;;
13171;SDS011;6651;53.200;10.432;2024-02-04T14:28:50;7.95;;;2.55;;
13171;SDS011;6651;53.200;10.432;2024-02-04T14:31:16;9.70;;;2.60;;
13171;SDS011;6651;53.200;10.432;2024-02-04T14:33:42;6.93;;;2.67;;
13171;SDS011;6651;53.200;10.432;2024-02-04T14:36:09;7.97;;;2.58;;
13171;SDS011;6651;53.200;10.432;2024-02-04T14:38:35;8.98;;;2.72;;
13171;SDS011;6651;53.200;10.432;2024-02-04T14:41:03;9.82;;;2.70;;
13171;SDS011;6651;53.200;10.432;2024-02-04T14:43:29;8.10;;;2.58;;
13171;SDS011;6651;53.200;10.432;2024-02-04T14:45:55;11.27;;;2.97;;
13171;SDS011;6651;53.200;10.432;2024-02-04T14:48:21;7.97;;;2.53;;
13171;SDS011;6651;53.200;10.432;2024-02-04T14:50:47;8.85;;;2.50;;